Time;durP1;ratioP1;P1;durP2;ratioP2;P2;SDS_P1;SDS_P2;PMS_P1;PMS_P2;Temp;Humidity;BMP_temperature;BMP_pressure;BME280_temperature;BME280_humidity;BME280_pressure;Samples;Min_cycle;Max_cycle;Signal;HPM_P1;HPM_P2
2022/06/07 00:00:23;;;;;;;4.32;1.90;;;;;;;15.08;100.00;98938.06;5112726;28;20052;-87
2022/06/07 00:02:52;;;;;;;3.85;1.90;;;;;;;15.29;100.00;98967.00;5115581;28;20134;-86
2022/06/07 00:05:19;;;;;;;2.70;1.90;;;;;;;15.24;100.00;98975.03;5114702;28;20043;-86
2022/06/07 00:07:47;;;;;;;2.65;1.80;;;;;;;15.19;100.00;98976.53;5106762;27;20167;-88
2022/06/07 00:10:14;;;;;;;4.22;1.98;;;;;;;15.28;100.00;98990.81;5106388;27;20044;-87
2022/06/07 00:12:41;;;;;;;4.10;2.03;;;;;;;15.09;100.00;98945.22;5109513;28;20463;-87
2022/06/07 00:15:09;;;;;;;3.67;2.05;;;;;;;15.33;100.00;98973.72;5112486;28;20079;-87
2022/06/07 00:17:36;;;;;;;2.83;1.98;;;;;;;15.26;100.00;98964.69;5115304;27;20684;-87
2022/06/07 00:20:08;;;;;;;2.47;2.00;;;;;;;15.31;100.00;98975.81;5114028;28;20452;-88
2022/06/07 00:22:36;;;;;;;3.08;1.98;;;;;;;15.34;100.00;98980.84;5107741;28;20043;-87
2022/06/07 00:25:04;;;;;;;5.47;2.00;;;;;;;15.39;100.00;98981.88;5107646;28;20079;-87
2022/06/07 00:27:31;;;;;;;4.13;2.08;;;;;;;15.43;100.00;98979.53;5117301;27;20044;-87
2022/06/07 00:29:58;;;;;;;2.45;2.17;;;;;;;15.48;100.00;98984.38;5113512;28;20048;-87
2022/06/07 00:32:26;;;;;;;3.88;1.92;;;;;;;15.50;100.00;98972.09;5112014;28;20050;-87
2022/06/07 00:34:53;;;;;;;5.05;2.00;;;;;;;15.30;100.00;98949.50;5113943;28;20552;-87
2022/06/07 00:37:22;;;;;;;2.33;1.83;;;;;;;15.36;100.00;98948.63;5126886;27;20055;-87
2022/06/07 00:39:49;;;;;;;2.05;1.83;;;;;;;15.53;100.00;98985.34;5110339;27;20482;-86
2022/06/07 00:42:16;;;;;;;3.45;1.75;;;;;;;15.54;100.00;98981.56;5105628;28;20138;-87
2022/06/07 00:44:44;;;;;;;4.95;1.88;;;;;;;15.52;100.00;98961.78;5114177;28;20131;-87
2022/06/07 00:47:14;;;;;;;4.07;2.00;;;;;;;15.38;100.00;98950.06;5111065;27;20048;-87
2022/06/07 00:49:45;;;;;;;2.78;1.88;;;;;;;15.42;100.00;98949.63;5114434;28;20043;-87
2022/06/07 00:52:12;;;;;;;4.63;1.70;;;;;;;15.52;100.00;98963.66;5113834;28;20142;-87
2022/06/07 00:54:42;;;;;;;5.70;2.05;;;;;;;15.60;100.00;98979.84;5112327;28;20130;-87
2022/06/07 00:57:09;;;;;;;2.50;2.00;;;;;;;15.48;100.00;98976.13;5113952;27;20051;-86
2022/06/07 00:59:36;;;;;;;2.00;1.80;;;;;;;15.57;100.00;98989.34;5106657;27;20074;-85
2022/06/07 01:02:04;;;;;;;2.65;1.90;;;;;;;15.35;100.00;98947.75;5112545;28;20611;-87
2022/06/07 01:04:31;;;;;;;5.05;1.98;;;;;;;15.44;100.00;98975.72;5114800;28;20039;-89
2022/06/07 01:12:32;;;;;;;9.10;2.42;;;;;;;15.20;100.00;98953.56;5106492;28;20126;-88
2022/06/07 01:14:59;;;;;;;2.90;2.10;;;;;;;15.25;100.00;98965.75;5111924;27;20054;-88
2022/06/07 01:17:25;;;;;;;3.10;1.83;;;;;;;15.20;100.00;98980.09;5120395;27;20052;-88
2022/06/07 01:19:52;;;;;;;11.82;2.35;;;;;;;15.07;100.00;98967.34;5114141;27;20142;-88
2022/06/07 01:22:22;;;;;;;5.85;2.25;;;;;;;15.01;100.00;98957.25;5105517;28;20568;-89
2022/06/07 01:24:48;;;;;;;2.50;2.20;;;;;;;15.14;100.00;98972.75;5114477;28;20085;-88
2022/06/07 01:27:15;;;;;;;4.70;2.20;;;;;;;15.11;100.00;98973.19;5110472;27;20255;-88
2022/06/07 01:29:43;;;;;;;3.33;2.30;;;;;;;15.05;100.00;98974.91;5111594;28;20376;-88
2022/06/07 01:32:11;;;;;;;4.35;2.15;;;;;;;15.01;100.00;98960.00;5106192;27;20084;-88
2022/06/07 01:34:39;;;;;;;2.25;1.73;;;;;;;15.08;100.00;98971.72;5107838;28;20053;-88
2022/06/07 01:37:06;;;;;;;2.35;1.88;;;;;;;14.92;100.00;98944.88;5112128;27;20058;-88
2022/06/07 01:42:18;;;;;;;4.20;2.22;;;;;;;14.89;100.00;98970.78;5112211;28;20611;-88
2022/06/07 01:44:48;;;;;;;2.22;1.85;;;;;;;15.05;100.00;98980.38;5112459;28;20079;-88
2022/06/07 01:47:17;;;;;;;4.45;1.95;;;;;;;14.85;100.00;98956.69;5113817;27;20047;-88
2022/06/07 01:49:45;;;;;;;7.18;1.85;;;;;;;15.01;100.00;98968.22;5110310;28;20127;-88
2022/06/07 01:52:13;;;;;;;6.05;2.03;;;;;;;15.06;100.00;98962.91;5109644;28;20071;-88
2022/06/07 01:54:42;;;;;;;2.25;1.63;;;;;;;15.03;100.00;98972.38;5108039;28;20410;-88
2022/06/07 01:57:09;;;;;;;2.83;1.67;;;;;;;15.07;100.00;98970.06;5112764;27;20530;-89
2022/06/07 01:59:38;;;;;;;3.63;1.58;;;;;;;15.02;100.00;98972.59;5113879;28;20506;-89
2022/06/07 02:02:06;;;;;;;4.45;1.83;;;;;;;14.96;100.00;98957.88;5110228;28;20048;-89
2022/06/07 02:04:32;;;;;;;9.85;1.70;;;;;;;14.98;100.00;98949.47;5108226;28;20134;-88
2022/06/07 02:06:59;;;;;;;5.22;1.88;;;;;;;15.07;100.00;98972.81;5121852;27;20167;-88
2022/06/07 02:09:27;;;;;;;1.88;1.60;;;;;;;14.82;100.00;98939.88;5132777;28;20035;-88
2022/06/07 02:11:55;;;;;;;2.13;1.73;;;;;;;14.91;100.00;98959.63;5136539;28;20031;-89
2022/06/07 02:14:23;;;;;;;4.38;2.00;;;;;;;14.74;100.00;98935.50;5129205;28;20035;-87
2022/06/07 02:16:49;;;;;;;6.85;1.92;;;;;;;14.89;100.00;98957.09;5123247;27;20046;-87
2022/06/07 02:19:16;;;;;;;3.80;2.13;;;;;;;14.78;100.00;98955.03;5110158;28;20067;-87
2022/06/07 02:21:43;;;;;;;6.05;1.77;;;;;;;14.66;100.00;98947.53;5112768;28;20131;-87
2022/06/07 02:24:10;;;;;;;1.98;1.80;;;;;;;14.48;100.00;98929.06;5111622;27;20077;-87
2022/06/07 02:26:40;;;;;;;6.28;1.80;;;;;;;14.61;100.00;98954.69;5120128;27;20040;-87
2022/06/07 02:29:11;;;;;;;4.13;1.90;;;;;;;14.65;100.00;98953.22;5111146;28;20134;-87
2022/06/07 02:31:41;;;;;;;8.32;2.00;;;;;;;14.53;100.00;98936.59;5107975;28;20053;-89
2022/06/07 02:34:09;;;;;;;6.97;2.10;;;;;;;14.54;100.00;98949.19;5102390;28;20059;-87
2022/06/07 02:36:37;;;;;;;5.20;2.00;;;;;;;14.45;100.00;98932.22;5107964;27;20489;-86
2022/06/07 02:39:04;;;;;;;4.55;1.83;;;;;;;14.22;100.00;98901.78;5110858;27;20048;-87
2022/06/07 02:41:34;;;;;;;3.00;2.03;;;;;;;14.29;100.00;98929.97;5111269;28;20047;-87
2022/06/07 02:44:01;;;;;;;4.10;2.00;;;;;;;14.32;100.00;98929.53;5111150;28;20055;-86
2022/06/07 02:46:29;;;;;;;2.42;2.00;;;;;;;14.31;100.00;98906.78;5111524;27;20130;-86
2022/06/07 02:48:55;;;;;;;2.13;1.65;;;;;;;14.44;100.00;98922.31;5105899;28;20048;-86
2022/06/07 02:51:22;;;;;;;2.78;1.92;;;;;;;14.51;100.00;98912.22;5111689;28;20467;-86
2022/06/07 02:53:48;;;;;;;3.20;1.95;;;;;;;14.58;100.00;98938.69;5109448;28;20059;-86
2022/06/07 02:56:15;;;;;;;3.30;2.17;;;;;;;14.53;100.00;98920.19;5109497;28;20055;-86
2022/06/07 02:58:42;;;;;;;2.65;1.75;;;;;;;14.37;100.00;98917.94;5108694;28;20047;-86
2022/06/07 03:01:09;;;;;;;4.35;1.65;;;;;;;14.42;100.00;98927.19;5105756;28;20052;-87
2022/06/07 03:03:38;;;;;;;1.95;1.70;;;;;;;14.34;100.00;98902.78;5112021;28;20042;-88
2022/06/07 03:06:05;;;;;;;8.35;1.95;;;;;;;14.45;100.00;98907.59;5124085;28;20047;-85
2022/06/07 03:08:32;;;;;;;5.38;2.10;;;;;;;14.46;100.00;98894.75;5110119;28;20043;-84
2022/06/07 03:10:58;;;;;;;3.90;1.85;;;;;;;14.45;100.00;98915.81;5111047;28;20097;-85
2022/06/07 03:13:25;;;;;;;2.58;2.10;;;;;;;14.39;100.00;98907.63;5111062;28;20051;-85
2022/06/07 03:15:53;;;;;;;6.78;2.55;;;;;;;14.15;100.00;98893.59;5109832;28;20142;-85
2022/06/07 03:18:20;;;;;;;2.40;2.05;;;;;;;14.23;100.00;98911.69;5112144;28;20059;-85
2022/06/07 03:20:49;;;;;;;2.60;1.60;;;;;;;14.25;100.00;98906.81;5108220;28;20060;-85
2022/06/07 03:23:16;;;;;;;3.00;1.90;;;;;;;14.37;100.00;98920.66;5114766;28;20059;-85
2022/06/07 03:25:43;;;;;;;9.63;2.15;;;;;;;14.40;100.00;98923.81;5113696;27;20039;-86
2022/06/07 03:28:10;;;;;;;4.85;2.35;;;;;;;14.22;100.00;98897.16;5112171;28;20075;-85
2022/06/07 03:30:39;;;;;;;4.18;1.88;;;;;;;14.28;100.00;98909.13;5110850;27;20052;-85
2022/06/07 03:33:06;;;;;;;3.53;2.00;;;;;;;14.27;100.00;98921.09;5113860;27;20414;-85
2022/06/07 03:35:33;;;;;;;3.63;1.90;;;;;;;14.22;100.00;98920.94;5115108;28;20050;-85
2022/06/07 03:38:03;;;;;;;3.33;1.88;;;;;;;14.07;100.00;98897.41;5102986;28;20058;-85
2022/06/07 03:40:45;;;;;;;5.85;1.52;;;;;;;14.31;100.00;98928.66;5115071;28;20039;-85
2022/06/07 03:43:12;;;;;;;2.65;1.55;;;;;;;14.36;100.00;98924.44;5113131;28;20051;-85
2022/06/07 03:45:42;;;;;;;4.15;1.73;;;;;;;14.13;100.00;98898.44;5111622;28;20043;-86
2022/06/07 03:48:09;;;;;;;4.75;1.73;;;;;;;14.27;100.00;98923.84;5115484;28;20094;-86
2022/06/07 03:50:37;;;;;;;4.00;3.40;;;;;;;14.34;100.00;98922.75;5113367;28;20066;-84
2022/06/07 03:53:05;;;;;;;7.90;1.70;;;;;;;14.22;100.00;98902.63;5114199;28;20051;-85
2022/06/07 03:55:32;;;;;;;3.55;2.00;;;;;;;14.22;100.00;98901.78;5108147;28;20508;-85
2022/06/07 03:57:59;;;;;;;3.22;1.85;;;;;;;14.44;100.00;98929.69;5117798;27;20055;-84
2022/06/07 04:00:25;;;;;;;5.78;1.38;;;;;;;14.29;100.00;98910.81;5104989;28;20070;-85
2022/06/07 04:02:52;;;;;;;4.43;1.85;;;;;;;14.16;100.00;98889.81;5113416;28;20059;-85
2022/06/07 04:05:19;;;;;;;8.68;1.75;;;;;;;14.14;100.00;98892.75;5115663;27;20067;-85
2022/06/07 04:10:30;;;;;;;4.25;1.40;;;;;;;14.34;100.00;98939.16;5114253;28;20143;-86
2022/06/07 04:12:57;;;;;;;2.15;1.45;;;;;;;14.28;100.00;98920.91;5106942;28;20059;-85
2022/06/07 04:15:24;;;;;;;3.50;1.50;;;;;;;14.34;100.00;98930.97;5113001;27;20130;-86
2022/06/07 04:17:53;;;;;;;1.90;1.50;;;;;;;14.41;100.00;98936.44;5114898;27;20051;-86
2022/06/07 04:20:20;;;;;;;2.30;1.50;;;;;;;14.38;100.00;98930.53;5108060;27;20414;-85
2022/06/07 04:22:47;;;;;;;4.03;2.10;;;;;;;14.38;100.00;98950.53;5114088;28;20054;-85
2022/06/07 04:25:13;;;;;;;2.40;1.70;;;;;;;14.23;100.00;98937.13;5112706;27;20051;-85
2022/06/07 04:27:45;;;;;;;6.30;1.65;;;;;;;14.14;100.00;98943.88;5113513;28;20046;-85
2022/06/07 04:30:13;;;;;;;2.28;1.40;;;;;;;14.24;100.00;98947.00;5121044;27;20482;-81
2022/06/07 04:32:45;;;;;;;2.00;1.42;;;;;;;14.22;100.00;98935.41;5100009;28;20060;-85
2022/06/07 04:35:13;;;;;;;2.20;1.73;;;;;;;14.18;100.00;98923.22;5119001;27;20393;-85
2022/06/07 04:37:40;;;;;;;2.95;1.35;;;;;;;14.21;100.00;98939.22;5109182;28;20050;-85
2022/06/07 04:40:08;;;;;;;5.68;1.60;;;;;;;14.18;100.00;98944.28;5116275;28;20134;-85
2022/06/07 04:42:34;;;;;;;3.28;1.85;;;;;;;14.12;100.00;98949.56;5114987;28;20047;-87
2022/06/07 04:45:02;;;;;;;3.08;1.90;;;;;;;14.07;100.00;98924.72;5114226;28;20126;-86
2022/06/07 04:47:29;;;;;;;2.90;1.40;;;;;;;14.23;100.00;98937.13;5108318;28;20051;-86
2022/06/07 04:49:56;;;;;;;2.22;1.67;;;;;;;14.23;100.00;98942.59;5112619;28;20051;-85
2022/06/07 04:52:23;;;;;;;5.97;1.38;;;;;;;14.19;100.00;98933.13;5119566;27;20493;-85
2022/06/07 04:54:49;;;;;;;2.47;1.40;;;;;;;14.28;100.00;98947.41;5111116;28;20047;-85
2022/06/07 04:57:16;;;;;;;3.22;1.67;;;;;;;14.32;100.00;98945.94;5115669;27;20071;-82
2022/06/07 04:59:42;;;;;;;8.80;1.30;;;;;;;14.25;100.00;98939.63;5112136;28;20071;-80
2022/06/07 05:02:13;;;;;;;6.35;1.30;;;;;;;14.41;100.00;98960.22;5103058;28;20055;-81
2022/06/07 05:04:43;;;;;;;3.92;1.70;;;;;;;14.31;100.00;98952.44;5114414;28;20046;-82
2022/06/07 05:07:10;;;;;;;4.30;1.90;;;;;;;14.07;100.00;98938.41;5114877;28;20063;-81
2022/06/07 05:09:40;;;;;;;7.50;1.80;;;;;;;14.12;100.00;98960.50;5111433;27;20398;-81
2022/06/07 05:12:09;;;;;;;5.60;1.55;;;;;;;14.09;100.00;98938.19;5108074;28;20467;-85
2022/06/07 05:14:36;;;;;;;19.58;2.70;;;;;;;14.32;100.00;98954.13;5107560;28;20036;-85
2022/06/07 05:17:03;;;;;;;2.35;1.45;;;;;;;14.51;100.00;98968.78;5111736;28;20044;-85
2022/06/07 05:19:33;;;;;;;4.20;1.45;;;;;;;14.57;100.00;98967.91;5108819;27;20040;-85
2022/06/07 05:22:01;;;;;;;2.85;1.80;;;;;;;14.50;100.00;98954.28;5110615;28;20051;-85
2022/06/07 05:24:28;;;;;;;3.72;1.60;;;;;;;14.59;100.00;98957.63;5112278;27;20044;-85
2022/06/07 05:26:59;;;;;;;1.55;1.45;;;;;;;14.51;100.00;98945.03;5113560;27;20067;-86
2022/06/07 05:29:29;;;;;;;2.70;1.67;;;;;;;14.72;100.00;98964.94;5114314;27;20047;-85
2022/06/07 05:31:58;;;;;;;5.05;3.03;;;;;;;14.61;100.00;98954.69;5114401;27;20047;-85
2022/06/07 05:34:25;;;;;;;3.08;1.75;;;;;;;14.84;100.00;98984.28;5115029;27;20136;-85
2022/06/07 05:36:53;;;;;;;9.60;1.45;;;;;;;14.79;100.00;98976.72;5113199;28;20081;-86
2022/06/07 05:39:23;;;;;;;2.03;1.23;;;;;;;14.85;100.00;98970.38;5115023;28;20043;-86
2022/06/07 05:41:51;;;;;;;2.17;1.65;;;;;;;15.02;100.00;98961.66;5094771;28;20056;-85
2022/06/07 05:44:18;;;;;;;2.70;1.48;;;;;;;15.16;100.00;98960.53;5113801;27;20039;-86
2022/06/07 05:46:45;;;;;;;3.28;1.38;;;;;;;15.23;100.00;98955.00;5094635;28;20494;-86
2022/06/07 05:49:13;;;;;;;5.72;1.75;;;;;;;15.49;100.00;98986.03;5112742;27;20490;-86
2022/06/07 05:51:40;;;;;;;2.15;1.27;;;;;;;15.58;100.00;98979.19;5110665;28;20058;-84
2022/06/07 05:54:08;;;;;;;3.75;1.30;;;;;;;15.65;100.00;98982.75;5102998;28;20043;-82
2022/06/07 05:56:35;;;;;;;7.03;1.70;;;;;;;15.89;100.00;98997.53;5105852;28;20079;-82
2022/06/07 05:59:05;;;;;;;1.80;1.10;;;;;;;16.02;100.00;98999.34;5113199;27;20047;-83
2022/06/07 06:01:35;;;;;;;2.10;1.20;;;;;;;16.22;100.00;98995.59;5111747;28;20048;-83
2022/06/07 06:04:03;;;;;;;3.95;1.23;;;;;;;16.21;100.00;98966.47;5101799;27;20051;-80
2022/06/07 06:06:30;;;;;;;1.67;1.00;;;;;;;16.37;100.00;98963.13;5117917;27;20081;-81
2022/06/07 06:11:42;;;;;;;1.67;0.88;;;;;;;17.16;100.00;98998.97;5100843;28;20513;-86
2022/06/07 06:14:09;;;;;;;4.50;1.10;;;;;;;17.34;100.00;98967.84;5108217;27;20517;-86
2022/06/07 06:16:39;;;;;;;3.70;1.20;;;;;;;17.68;99.00;98997.56;5107442;28;20047;-87
2022/06/07 06:19:06;;;;;;;1.92;1.00;;;;;;;17.88;95.07;98991.75;5104257;28;20082;-86
2022/06/07 06:21:34;;;;;;;3.45;1.10;;;;;;;17.60;96.00;98971.28;5103602;28;20048;-86
2022/06/07 06:24:02;;;;;;;2.05;1.02;;;;;;;17.97;98.25;98995.03;5106871;28;20064;-86
2022/06/07 06:26:29;;;;;;;2.20;1.45;;;;;;;18.06;92.31;98999.09;5106516;28;20132;-86
2022/06/07 06:28:58;;;;;;;2.55;1.35;;;;;;;18.25;89.36;98982.50;5102249;27;20050;-86
2022/06/07 06:31:25;;;;;;;1.33;0.80;;;;;;;18.27;83.99;98970.16;5101957;28;20047;-87
2022/06/07 06:33:54;;;;;;;4.32;1.08;;;;;;;18.48;84.13;98982.47;5102565;28;20091;-86
2022/06/07 06:36:23;;;;;;;0.85;0.80;;;;;;;18.50;86.62;98966.56;5102439;28;20146;-86
2022/06/07 06:38:49;;;;;;;1.47;0.97;;;;;;;18.61;85.16;98980.53;5110242;28;20051;-87
2022/06/07 06:41:19;;;;;;;1.15;1.05;;;;;;;18.73;84.88;98957.41;5106495;28;20052;-86
2022/06/07 06:43:45;;;;;;;1.83;0.98;;;;;;;18.67;81.06;98952.88;5104051;28;20160;-86
2022/06/07 06:46:19;;;;;;;3.95;0.90;;;;;;;19.29;80.79;98987.19;5105721;27;20142;-86
2022/06/07 06:48:47;;;;;;;6.95;1.20;;;;;;;19.13;80.29;98964.00;5114098;28;20051;-86
2022/06/07 06:51:17;;;;;;;5.13;1.48;;;;;;;19.09;79.74;98985.72;5112711;28;20067;-88
2022/06/07 06:53:47;;;;;;;;;;;;;;;19.15;81.21;98986.66;5097245;28;20637;-87
2022/06/07 06:56:16;;;;;;;3.38;0.90;;;;;;;19.18;79.15;98985.31;5114278;28;19923;-88
2022/06/07 06:58:43;;;;;;;2.20;0.80;;;;;;;19.33;73.95;98973.75;5106274;28;20054;-88
2022/06/07 07:01:12;;;;;;;2.97;0.85;;;;;;;19.62;70.75;98991.94;5113359;28;20044;-85
2022/06/07 07:03:42;;;;;;;1.63;0.80;;;;;;;19.97;72.64;98971.59;5112196;28;20053;-86
2022/06/07 07:06:13;;;;;;;2.20;0.80;;;;;;;19.89;71.77;98983.06;5109146;28;20479;-86
2022/06/07 07:08:42;;;;;;;1.80;0.75;;;;;;;19.57;71.20;98993.75;5113501;28;20071;-86
2022/06/07 07:11:12;;;;;;;1.27;0.80;;;;;;;19.57;72.90;99002.88;5103436;28;20055;-86
2022/06/07 07:13:39;;;;;;;1.45;0.80;;;;;;;19.34;74.01;98995.53;5099624;28;20465;-82
2022/06/07 07:16:11;;;;;;;2.60;0.68;;;;;;;19.33;75.73;98993.03;5110906;28;20067;-88
2022/06/07 07:18:45;;;;;;;0.98;0.60;;;;;;;19.73;72.25;98998.47;5103673;28;20475;-89
2022/06/07 07:21:15;;;;;;;1.80;0.63;;;;;;;20.28;69.71;98977.59;5093531;28;20044;-86
2022/06/07 07:23:43;;;;;;;1.02;0.85;;;;;;;20.97;65.88;98979.09;5092890;28;20139;-86
2022/06/07 07:26:13;;;;;;;5.93;0.80;;;;;;;20.96;63.52;98962.78;5091551;28;20155;-85
2022/06/07 07:28:41;;;;;;;1.23;0.80;;;;;;;20.49;65.98;98989.78;5099078;28;20043;-86
2022/06/07 07:31:14;;;;;;;1.30;0.77;;;;;;;20.71;66.50;98975.16;5111426;28;20105;-87
2022/06/07 07:33:41;;;;;;;2.20;0.80;;;;;;;20.62;67.37;98976.69;5112014;28;20147;-87
2022/06/07 07:36:11;;;;;;;3.33;0.80;;;;;;;20.26;70.62;98973.41;5111725;28;20075;-86
2022/06/07 07:38:39;;;;;;;1.20;0.60;;;;;;;20.28;67.74;98994.16;5111790;28;20051;-86
2022/06/07 07:41:16;;;;;;;3.08;0.90;;;;;;;20.18;66.91;98998.69;5112033;28;20051;-85
2022/06/07 07:43:44;;;;;;;0.70;0.60;;;;;;;19.70;68.68;98982.41;5111136;28;20067;-85
2022/06/07 07:46:12;;;;;;;3.20;0.77;;;;;;;19.96;68.41;98985.63;5110234;28;20055;-84
2022/06/07 07:48:40;;;;;;;1.25;0.70;;;;;;;20.26;68.11;98956.84;5105948;28;20044;-84
2022/06/07 07:51:08;;;;;;;1.80;0.90;;;;;;;20.19;67.82;98956.19;5108445;28;20047;-87
2022/06/07 07:53:37;;;;;;;4.60;0.60;;;;;;;20.69;65.35;98975.44;5107353;28;20126;-85
2022/06/07 07:56:07;;;;;;;3.88;0.70;;;;;;;20.48;66.99;98976.22;5109253;28;20048;-84
2022/06/07 07:58:34;;;;;;;2.40;0.60;;;;;;;20.58;68.72;98986.56;5111780;28;20058;-86
2022/06/07 08:01:00;;;;;;;2.20;0.70;;;;;;;20.72;65.05;98967.75;5111939;28;20048;-84
2022/06/07 08:03:27;;;;;;;2.20;0.98;;;;;;;21.06;62.94;98968.41;5111144;28;20056;-87
2022/06/07 08:05:54;;;;;;;2.95;0.80;;;;;;;21.53;62.62;98978.91;5112273;28;20518;-86
2022/06/07 08:08:20;;;;;;;1.13;0.60;;;;;;;21.11;61.80;98968.47;5114641;27;20106;-86
2022/06/07 08:10:49;;;;;;;0.50;0.50;;;;;;;20.50;64.54;98962.97;5115345;28;20084;-88
2022/06/07 08:13:16;;;;;;;3.15;0.80;;;;;;;20.09;65.47;98965.16;5114410;28;20055;-87
2022/06/07 08:15:45;;;;;;;1.80;0.65;;;;;;;20.18;65.91;98985.72;5123791;28;20079;-86
2022/06/07 08:18:11;;;;;;;2.35;0.65;;;;;;;20.08;65.25;98978.13;5138075;28;20047;-87
2022/06/07 08:20:39;;;;;;;1.63;0.60;;;;;;;20.35;64.15;98955.31;5139157;28;20036;-87
2022/06/07 08:23:08;;;;;;;4.70;0.73;;;;;;;20.44;62.75;98941.91;5138257;28;20036;-86
2022/06/07 08:25:38;;;;;;;3.15;0.80;;;;;;;20.39;63.07;98967.53;5118872;28;20043;-87
2022/06/07 08:28:06;;;;;;;0.52;0.47;;;;;;;;;;5117907;28;20224;-88
2022/06/07 08:30:32;;;;;;;2.97;0.73;;;;;;;20.88;65.95;98957.69;5111052;28;20182;-86
2022/06/07 08:37:32;;;;;;;1.58;0.65;;;;;;;20.97;66.23;98939.56;5118060;28;20047;-88
2022/06/07 08:38:31;;;;;;;1.20;0.60;;;;;;;20.96;59.02;98971.91;5118644;28;20089;-86
2022/06/07 08:40:58;;;;;;;0.63;0.43;;;;;;;21.00;59.30;98950.97;5114208;28;20096;-88
2022/06/07 08:43:26;;;;;;;3.40;0.70;;;;;;;21.02;58.54;98942.41;5116829;28;20055;-86
2022/06/07 08:45:55;;;;;;;3.03;0.60;;;;;;;21.08;58.87;98960.72;5116311;28;20075;-88
2022/06/07 08:48:24;;;;;;;0.95;0.57;;;;;;;20.27;61.55;98951.06;5108031;28;20163;-88
2022/06/07 08:51:01;;;;;;;2.97;0.70;;;;;;;20.50;62.52;98957.47;5115390;28;20475;-88
2022/06/07 08:53:35;;;;;;;2.92;0.70;;;;;;;20.56;61.41;98948.16;5111666;28;20503;-87
2022/06/07 08:56:05;;;;;;;1.52;0.82;;;;;;;20.97;64.00;98939.56;5112549;28;20497;-89
2022/06/07 08:58:38;;;;;;;1.10;0.70;;;;;;;21.26;59.72;98931.03;5115113;28;20134;-88
2022/06/07 09:01:17;;;;;;;2.45;0.65;;;;;;;20.80;61.64;98928.59;5116438;28;20101;-87
2022/06/07 09:03:55;;;;;;;1.10;0.40;;;;;;;20.50;62.42;98941.75;5113385;28;20032;-88
2022/06/07 09:06:24;;;;;;;2.40;0.60;;;;;;;20.34;63.93;98926.06;5115257;27;20055;-88
2022/06/07 09:08:54;;;;;;;0.60;0.60;;;;;;;20.65;58.62;98951.31;5113983;28;20048;-88
2022/06/07 09:14:11;;;;;;;4.30;0.52;;;;;;;21.29;51.81;98939.66;5093651;28;19943;-88
2022/06/07 09:16:43;;;;;;;1.92;0.60;;;;;;;21.55;52.84;98937.16;5094000;28;20111;-89
2022/06/07 09:19:11;;;;;;;1.63;0.43;;;;;;;21.91;53.08;98935.53;5093502;28;20066;-89
2022/06/07 09:21:41;;;;;;;0.52;0.50;;;;;;;21.68;53.13;98941.41;5105811;28;20568;-86
2022/06/07 09:24:10;;;;;;;;;;;;;;;21.83;54.72;98937.94;5113655;28;20728;-90
2022/06/07 09:26:41;;;;;;;1.38;0.65;;;;;;;21.70;54.46;98923.47;5114420;28;19919;-89
2022/06/07 09:29:16;;;;;;;5.38;1.48;;;;;;;22.06;52.02;98945.06;5115835;28;20052;-88
2022/06/07 09:31:44;;;;;;;3.00;0.70;;;;;;;22.04;52.06;98919.56;5113912;28;20071;-90
2022/06/07 09:34:20;;;;;;;1.35;0.50;;;;;;;21.81;52.74;98918.00;5114318;28;20138;-92
2022/06/07 09:36:57;;;;;;;3.20;0.90;;;;;;;21.89;50.87;98921.13;5113910;28;20098;-92
2022/06/07 09:39:29;;;;;;;2.70;0.80;;;;;;;22.02;55.12;98922.59;5114692;28;20146;-87
2022/06/07 09:42:06;;;;;;;1.05;0.45;;;;;;;21.98;51.30;98928.94;5115258;28;20493;-88
2022/06/07 09:44:38;;;;;;;1.48;0.50;;;;;;;21.79;49.72;98929.34;5114311;27;20059;-85
2022/06/07 09:47:17;;;;;;;1.88;0.68;;;;;;;21.88;50.11;98925.00;5114471;28;20044;-86
2022/06/07 09:49:46;;;;;;;0.43;0.40;;;;;;;22.19;50.20;98919.69;5113541;28;20049;-86
2022/06/07 09:52:20;;;;;;;0.70;0.43;;;;;;;21.89;49.21;98887.94;5104261;28;20104;-89
2022/06/07 09:54:53;;;;;;;1.23;0.55;;;;;;;21.59;50.06;98884.91;5115100;28;20052;-89
2022/06/07 09:57:36;;;;;;;0.98;0.40;;;;;;;22.31;49.78;98899.25;5115541;28;20104;-89
2022/06/07 10:00:17;;;;;;;1.65;0.50;;;;;;;22.50;48.81;98900.47;5115026;28;20051;-87
2022/06/07 10:03:19;;;;;;;1.90;0.60;;;;;;;22.35;49.31;98892.94;5112622;28;20119;-89
2022/06/07 10:05:56;;;;;;;3.13;1.02;;;;;;;22.31;52.45;98911.19;5101582;28;20444;-88
2022/06/07 10:08:41;;;;;;;3.20;1.25;;;;;;;22.49;48.11;98889.66;5094255;28;20048;-88
2022/06/07 10:11:15;;;;;;;4.25;0.52;;;;;;;22.39;46.95;98899.59;5093579;28;20073;-87
2022/06/07 10:14:00;;;;;;;0.70;0.50;;;;;;;22.40;47.78;98875.50;5094728;28;20077;-88
2022/06/07 10:16:37;;;;;;;1.25;0.70;;;;;;;22.42;49.09;98903.78;5110736;28;20058;-87
2022/06/07 10:19:20;;;;;;;1.10;0.40;;;;;;;22.42;50.77;98898.25;5113793;28;20550;-85
2022/06/07 10:22:12;;;;;;;1.00;0.43;;;;;;;22.74;49.70;98898.09;5113584;27;20073;-86
2022/06/07 10:24:48;;;;;;;2.95;0.50;;;;;;;23.42;50.61;98890.78;5112951;28;20061;-87
2022/06/07 10:27:20;;;;;;;0.95;0.60;;;;;;;23.93;49.73;98898.31;5113539;28;20150;-87
2022/06/07 10:30:20;;;;;;;3.58;0.65;;;;;;;23.84;47.43;98865.50;5113050;28;20058;-86
2022/06/07 10:33:20;;;;;;;4.20;0.50;;;;;;;23.60;46.21;98868.03;5106745;28;20047;-85
2022/06/07 10:35:55;;;;;;;4.13;0.75;;;;;;;23.16;48.01;98887.97;5093530;28;20048;-87
2022/06/07 10:38:36;;;;;;;1.00;0.57;;;;;;;23.10;47.60;98853.84;5093439;28;20079;-88
2022/06/07 10:41:12;;;;;;;7.03;0.70;;;;;;;23.08;47.54;98875.47;5095547;28;20135;-88
2022/06/07 10:43:50;;;;;;;2.35;0.60;;;;;;;23.35;47.54;98863.34;5092772;28;20048;-88
2022/06/07 10:46:20;;;;;;;2.15;0.50;;;;;;;23.37;47.97;98877.75;5112498;28;20048;-88
2022/06/07 10:49:01;;;;;;;1.17;0.60;;;;;;;23.16;48.04;98868.56;5107005;28;20043;-89
2022/06/07 10:54:25;;;;;;;1.65;0.50;;;;;;;22.36;49.99;98863.31;5112502;28;20180;-85
2022/06/07 10:57:02;;;;;;;4.05;0.63;;;;;;;22.10;50.82;98868.69;5111760;28;20059;-86
2022/06/07 10:59:30;;;;;;;1.52;0.68;;;;;;;22.13;50.44;98859.84;5113106;28;20074;-87
2022/06/07 11:02:07;;;;;;;1.30;0.52;;;;;;;22.24;51.36;98877.34;5113470;28;20074;-87
2022/06/07 11:10:22;;;;;;;3.22;0.85;;;;;;;22.67;48.26;98846.81;5111202;28;20051;-87
2022/06/07 11:12:58;;;;;;;2.00;0.60;;;;;;;23.05;46.76;98851.06;5100743;28;20479;-87
2022/06/07 11:15:33;;;;;;;2.25;1.02;;;;;;;23.36;48.64;98856.66;5108263;28;20108;-86
2022/06/07 11:18:05;;;;;;;5.97;0.80;;;;;;;23.52;45.39;98862.22;5112654;28;20083;-86
2022/06/07 11:20:36;;;;;;;1.63;0.50;;;;;;;24.01;45.79;98856.94;5106260;28;20048;-86
2022/06/07 11:23:13;;;;;;;1.35;0.63;;;;;;;24.42;45.58;98839.31;5109523;28;20066;-86
2022/06/07 11:25:45;;;;;;;0.60;0.57;;;;;;;24.45;44.21;98833.19;5105677;28;20571;-85
2022/06/07 11:28:15;;;;;;;3.00;0.60;;;;;;;24.46;44.21;98825.66;5112357;28;20051;-85
2022/06/07 11:30:44;;;;;;;;;;;;;;;24.77;44.24;98845.00;5114931;28;20532;-85
2022/06/07 11:33:38;;;;;;;2.35;0.57;;;;;;;24.47;43.49;98830.09;5112511;28;19973;-86
2022/06/07 11:36:36;;;;;;;1.73;0.77;;;;;;;24.18;44.61;98833.56;5113119;28;20384;-86
2022/06/07 11:39:19;;;;;;;2.63;0.70;;;;;;;23.79;45.18;98823.91;5067182;28;20495;-87
2022/06/07 11:41:48;;;;;;;0.68;0.52;;;;;;;23.42;45.14;98824.22;5116299;28;20052;-86
2022/06/07 11:44:50;;;;;;;0.50;0.50;;;;;;;23.23;45.43;98824.78;5113620;28;20071;-86
2022/06/07 11:47:55;;;;;;;1.08;0.55;;;;;;;23.01;47.44;98811.13;5095127;28;20059;-85
2022/06/07 11:50:31;;;;;;;1.70;0.55;;;;;;;22.75;47.70;98800.00;5095097;28;20058;-87
2022/06/07 11:53:23;;;;;;;1.92;0.70;;;;;;;22.48;48.88;98811.28;5114980;28;20054;-85
2022/06/07 11:55:56;;;;;;;3.47;0.77;;;;;;;22.66;51.65;98828.50;5115514;28;20275;-86
2022/06/07 11:58:54;;;;;;;0.88;0.50;;;;;;;22.33;49.21;98809.31;5114537;28;20050;-85
2022/06/07 12:01:44;;;;;;;1.40;0.60;;;;;;;22.72;48.57;98819.94;5095846;27;20050;-85
2022/06/07 12:04:34;;;;;;;4.65;0.57;;;;;;;22.43;49.97;98801.03;5118976;28;20055;-85
2022/06/07 12:07:10;;;;;;;2.92;0.50;;;;;;;22.63;50.72;98816.06;5117175;28;20062;-85
2022/06/07 12:09:40;;;;;;;0.45;0.40;;;;;;;22.50;49.29;98827.66;5116122;28;20139;-85
2022/06/07 12:12:20;;;;;;;2.17;0.70;;;;;;;22.80;49.56;98804.72;5114931;28;20143;-86